createdAt,value
2019-05-21T00:00:52.289Z,21.50
2019-05-21T00:01:43.251Z,21.80
2019-05-21T00:02:43.328Z,20.70
2019-05-21T00:03:43.450Z,21.30
2019-05-21T00:04:43.146Z,24.00
2019-05-21T00:05:43.146Z,23.50
2019-05-21T00:06:43.153Z,22.30
2019-05-21T00:07:43.069Z,23.20
2019-05-21T00:08:43.098Z,23.30
2019-05-21T00:09:43.058Z,22.90
2019-05-21T00:10:43.026Z,22.80
2019-05-21T00:11:43.021Z,22.60
2019-05-21T00:12:43.024Z,22.90
2019-05-21T00:13:42.971Z,26.10
2019-05-21T00:14:42.955Z,25.20
2019-05-21T00:15:42.993Z,26.20
2019-05-21T00:16:51.630Z,24.40
2019-05-21T00:18:47.389Z,32.40
2019-05-21T00:19:56.103Z,26.20
2019-05-21T00:21:52.037Z,24.30
2019-05-21T00:22:51.751Z,27.10
2019-05-21T00:24:00.572Z,26.20
2019-05-21T00:26:05.444Z,25.90
2019-05-21T00:27:04.925Z,25.60
2019-05-21T00:29:00.726Z,20.20
2019-05-21T00:30:09.247Z,19.60
2019-05-21T00:32:05.056Z,23.30
2019-05-21T00:33:05.060Z,22.30
2019-05-21T00:34:05.098Z,20.30
2019-05-21T00:35:05.142Z,24.00
2019-05-21T00:36:05.000Z,22.70
2019-05-21T00:37:04.859Z,22.10
2019-05-21T00:38:04.846Z,21.80
2019-05-21T00:39:04.796Z,22.30
2019-05-21T00:40:04.787Z,27.50
2019-05-21T00:41:04.770Z,29.50
2019-05-21T00:42:04.841Z,24.50
2019-05-21T00:43:04.745Z,27.30
2019-05-21T00:44:04.723Z,31.80
2019-05-21T00:45:04.706Z,31.50
2019-05-21T00:46:04.683Z,33.80
2019-05-21T00:47:04.687Z,33.50
2019-05-21T00:48:05.886Z,30.20
2019-05-21T00:49:04.677Z,32.00
2019-05-21T00:50:04.588Z,32.40
2019-05-21T00:51:04.569Z,37.40
2019-05-21T00:52:08.435Z,32.80
2019-05-21T00:53:04.526Z,35.80
2019-05-21T00:54:04.538Z,30.60
2019-05-21T00:55:04.520Z,32.10
2019-05-21T00:56:04.492Z,28.90
2019-05-21T00:57:04.457Z,33.00
2019-05-21T00:58:04.488Z,25.50
2019-05-21T00:59:04.411Z,29.10
2019-05-21T01:00:04.465Z,22.70
2019-05-21T01:01:04.352Z,26.40
2019-05-21T01:02:04.384Z,26.40
2019-05-21T01:03:04.339Z,24.90
2019-05-21T01:04:04.304Z,27.90
2019-05-21T01:05:04.294Z,32.10
2019-05-21T01:06:04.280Z,36.80
2019-05-21T01:07:04.287Z,33.70
2019-05-21T01:08:04.232Z,34.60
2019-05-21T01:09:04.210Z,37.60
2019-05-21T01:10:04.198Z,34.80
2019-05-21T01:11:04.180Z,32.90
2019-05-21T01:12:04.172Z,36.40
2019-05-21T01:13:04.173Z,31.60
2019-05-21T01:14:04.138Z,30.30
2019-05-21T01:15:04.132Z,32.60
2019-05-21T01:16:04.120Z,35.00
2019-05-21T01:17:04.042Z,38.90
2019-05-21T01:18:04.022Z,44.30
2019-05-21T01:19:04.017Z,36.10
2019-05-21T01:20:03.992Z,37.40
2019-05-21T01:21:03.974Z,42.70
2019-05-21T01:22:03.956Z,49.90
2019-05-21T01:23:03.950Z,45.00
2019-05-21T01:24:03.934Z,50.70
2019-05-21T01:25:03.950Z,47.30
2019-05-21T01:26:03.896Z,54.80
2019-05-21T01:27:03.897Z,56.50
2019-05-21T01:28:03.842Z,55.30
2019-05-21T01:29:03.905Z,56.80
2019-05-21T01:30:03.801Z,48.00
2019-05-21T01:31:03.797Z,50.90
2019-05-21T01:32:03.789Z,50.40
2019-05-21T01:33:03.734Z,55.70
2019-05-21T01:34:03.716Z,55.00
2019-05-21T01:35:15.954Z,57.10
2019-05-21T01:36:03.674Z,62.40
2019-05-21T01:37:03.657Z,62.50
2019-05-21T01:38:03.665Z,57.00
2019-05-21T01:39:03.607Z,57.30
2019-05-21T01:40:03.602Z,59.80
2019-05-21T01:41:03.615Z,53.80
2019-05-21T01:42:03.556Z,55.40
2019-05-21T01:43:03.713Z,54.00
2019-05-21T01:44:03.545Z,66.40
2019-05-21T01:45:03.501Z,60.00
2019-05-21T01:46:03.510Z,62.40
2019-05-21T01:47:03.469Z,65.50
2019-05-21T01:48:03.446Z,64.30
2019-05-21T01:49:03.497Z,61.80
2019-05-21T01:50:03.448Z,53.60
2019-05-21T01:51:03.458Z,57.70
2019-05-21T01:52:03.382Z,58.50
2019-05-21T01:53:03.374Z,57.30
2019-05-21T01:54:03.312Z,54.90
2019-05-21T01:55:03.320Z,61.40
2019-05-21T01:56:03.453Z,59.00
2019-05-21T01:57:03.296Z,60.90
2019-05-21T01:58:03.298Z,51.90
2019-05-21T01:59:03.263Z,54.20
2019-05-21T02:00:03.207Z,53.00
2019-05-21T02:01:03.179Z,55.30
2019-05-21T02:02:03.213Z,49.30
2019-05-21T02:03:03.177Z,62.70
2019-05-21T02:04:03.129Z,58.60
2019-05-21T02:05:03.100Z,53.50
2019-05-21T02:06:03.104Z,52.90
2019-05-21T02:07:03.095Z,66.20
2019-05-21T02:08:03.071Z,59.30
2019-05-21T02:09:03.065Z,59.90
2019-05-21T02:10:03.020Z,63.00
2019-05-21T02:11:02.980Z,56.30
2019-05-21T02:12:03.005Z,64.60
2019-05-21T02:13:02.987Z,59.20
2019-05-21T02:14:02.959Z,53.90
2019-05-21T02:15:02.998Z,69.60
2019-05-21T02:16:02.943Z,67.30
2019-05-21T02:17:02.861Z,60.20
2019-05-21T02:18:02.867Z,58.10
2019-05-21T02:19:02.827Z,62.20
2019-05-21T02:20:02.818Z,64.60
2019-05-21T02:21:02.853Z,64.70
2019-05-21T02:22:02.767Z,69.50
2019-05-21T02:23:02.762Z,61.30
2019-05-21T02:24:02.789Z,54.70
2019-05-21T02:25:02.753Z,57.70
2019-05-21T02:26:02.728Z,64.70
2019-05-21T02:27:02.757Z,76.30
2019-05-21T02:28:11.298Z,55.80
2019-05-21T02:30:17.295Z,63.30
2019-05-21T02:31:08.114Z,62.80
2019-05-21T02:32:08.089Z,75.10
2019-05-21T02:33:08.057Z,70.40
2019-05-21T02:34:08.066Z,63.80
2019-05-21T02:35:08.125Z,81.30
2019-05-21T02:36:08.005Z,63.00
2019-05-21T02:37:07.966Z,72.10
2019-05-21T02:38:07.961Z,68.20
2019-05-21T02:39:07.945Z,52.10
2019-05-21T02:40:07.961Z,58.40
2019-05-21T02:41:07.884Z,59.40
2019-05-21T02:42:07.858Z,75.40
2019-05-21T02:43:07.860Z,56.10
2019-05-21T02:44:07.817Z,63.80
2019-05-21T02:45:07.832Z,55.30
2019-05-21T02:46:07.781Z,52.80
2019-05-21T02:47:07.807Z,61.00
2019-05-21T02:48:07.784Z,77.30
2019-05-21T02:49:07.736Z,49.90
2019-05-21T02:50:07.769Z,42.90
2019-05-21T02:51:07.677Z,51.80
2019-05-21T02:52:07.688Z,43.80
2019-05-21T02:53:07.635Z,49.40
2019-05-21T02:54:07.630Z,61.30
2019-05-21T02:55:07.676Z,48.40
2019-05-21T02:56:07.606Z,46.80
2019-05-21T02:57:07.559Z,34.30
2019-05-21T02:58:07.550Z,43.30
2019-05-21T02:59:07.601Z,40.90
2019-05-21T03:00:07.546Z,36.60
2019-05-21T03:01:07.520Z,39.50
2019-05-21T03:02:07.543Z,42.40
2019-05-21T03:03:07.437Z,36.90
2019-05-21T03:04:07.462Z,36.80
2019-05-21T03:05:07.411Z,34.90
2019-05-21T03:06:13.659Z,43.10
2019-05-21T03:07:07.371Z,35.70
2019-05-21T03:08:07.432Z,34.90
2019-05-21T03:09:07.375Z,40.90
2019-05-21T03:10:07.317Z,33.70
2019-05-21T03:11:07.303Z,41.50
2019-05-21T03:12:07.291Z,40.20
2019-05-21T03:13:07.247Z,41.10
2019-05-21T03:14:07.225Z,37.60
2019-05-21T03:15:07.233Z,34.30
2019-05-21T03:16:07.187Z,32.70
2019-05-21T03:17:07.232Z,34.60
2019-05-21T03:18:07.207Z,48.80
2019-05-21T03:19:07.162Z,33.50
2019-05-21T03:20:07.104Z,41.70
2019-05-21T03:21:07.136Z,50.30
2019-05-21T03:22:07.118Z,33.00
2019-05-21T03:23:07.102Z,34.80
2019-05-21T03:24:07.105Z,46.40
2019-05-21T03:25:07.047Z,41.50
2019-05-21T03:26:07.041Z,40.10
2019-05-21T03:27:07.056Z,37.50
2019-05-21T03:28:07.007Z,33.60
2019-05-21T03:29:06.951Z,41.50
2019-05-21T03:30:06.970Z,36.10
2019-05-21T03:31:06.919Z,51.30
2019-05-21T03:32:06.905Z,38.20
2019-05-21T03:33:06.936Z,38.40
2019-05-21T03:34:06.897Z,35.60
2019-05-21T03:35:06.875Z,39.10
2019-05-21T03:36:08.618Z,34.80
2019-05-21T03:37:06.806Z,44.40
2019-05-21T03:38:06.767Z,41.80
2019-05-21T03:39:06.862Z,35.60
2019-05-21T03:40:06.711Z,40.80
2019-05-21T03:41:06.719Z,44.50
2019-05-21T03:42:06.698Z,53.90
2019-05-21T03:43:06.666Z,38.90
2019-05-21T03:44:06.673Z,47.30
2019-05-21T03:45:07.821Z,34.30
2019-05-21T03:46:06.751Z,45.20
2019-05-21T03:47:06.658Z,39.50
2019-05-21T03:48:06.576Z,41.10
2019-05-21T03:49:06.617Z,39.00
2019-05-21T03:50:06.560Z,46.40
2019-05-21T03:51:06.507Z,40.30
2019-05-21T03:52:06.497Z,36.50
2019-05-21T03:53:06.460Z,37.80
2019-05-21T03:54:15.260Z,57.00
2019-05-21T03:56:11.122Z,54.80
2019-05-21T03:57:10.924Z,54.10
2019-05-21T03:58:19.505Z,52.40
2019-05-21T04:00:25.365Z,52.60
2019-05-21T04:01:15.472Z,46.20
2019-05-21T04:02:15.284Z,52.80
2019-05-21T04:03:15.299Z,45.20
2019-05-21T04:04:15.209Z,45.70
2019-05-21T04:05:15.219Z,40.80
2019-05-21T04:06:15.189Z,55.50
2019-05-21T04:07:15.160Z,47.90
2019-05-21T04:08:15.104Z,45.80
2019-05-21T04:09:15.105Z,40.70
2019-05-21T04:10:15.085Z,40.50
2019-05-21T04:11:15.052Z,44.80
2019-05-21T04:12:15.075Z,48.40
2019-05-21T04:13:15.040Z,55.00
2019-05-21T04:14:15.064Z,51.90
2019-05-21T04:15:15.000Z,51.00
2019-05-21T04:16:15.033Z,49.60
2019-05-21T04:17:14.920Z,54.90
2019-05-21T04:18:14.933Z,47.10
2019-05-21T04:19:14.908Z,53.80
2019-05-21T04:20:14.918Z,45.60
2019-05-21T04:21:14.896Z,51.90
2019-05-21T04:22:14.890Z,42.40
2019-05-21T04:23:14.826Z,50.10
2019-05-21T04:24:14.839Z,40.90
2019-05-21T04:25:14.799Z,42.10
2019-05-21T04:26:14.807Z,50.70
2019-05-21T04:27:14.751Z,43.90
2019-05-21T04:28:14.760Z,57.10
2019-05-21T04:29:14.690Z,41.20
2019-05-21T04:30:14.683Z,48.30
2019-05-21T04:31:14.682Z,54.30
2019-05-21T04:32:14.696Z,51.50
2019-05-21T04:33:14.656Z,62.80
2019-05-21T04:34:14.653Z,41.90
2019-05-21T04:35:14.592Z,58.10
2019-05-21T04:36:14.573Z,45.30
2019-05-21T04:37:17.339Z,45.30
2019-05-21T04:38:14.541Z,51.60
2019-05-21T04:39:14.522Z,56.50
2019-05-21T04:40:14.494Z,55.80
2019-05-21T04:41:14.455Z,49.50
2019-05-21T04:42:14.428Z,61.80
2019-05-21T04:43:14.443Z,62.20
2019-05-21T04:44:14.472Z,61.50
2019-05-21T04:45:14.370Z,48.90
2019-05-21T04:46:14.388Z,51.20
2019-05-21T04:47:14.494Z,59.80
2019-05-21T04:48:14.381Z,51.70
2019-05-21T04:49:14.338Z,48.30
2019-05-21T04:50:14.298Z,60.00
2019-05-21T04:51:24.118Z,48.20
2019-05-21T04:53:27.790Z,55.00
2019-05-21T04:54:27.364Z,50.60
2019-05-21T04:56:32.164Z,52.30
2019-05-21T04:57:23.192Z,55.40
2019-05-21T04:58:31.794Z,50.60
2019-05-21T05:00:37.768Z,48.80
2019-05-21T05:01:27.779Z,53.50
2019-05-21T05:02:27.454Z,55.30
2019-05-21T05:03:27.490Z,44.90
2019-05-21T05:04:27.428Z,48.80
2019-05-21T05:05:27.402Z,56.60
2019-05-21T05:06:27.377Z,44.90
2019-05-21T05:07:28.852Z,48.90
2019-05-21T05:08:27.340Z,52.30
2019-05-21T05:09:27.312Z,51.50
2019-05-21T05:10:27.279Z,42.60
2019-05-21T05:11:27.262Z,44.80
2019-05-21T05:12:27.240Z,50.50
2019-05-21T05:13:27.235Z,44.50
2019-05-21T05:14:27.197Z,51.00
2019-05-21T05:15:27.187Z,48.60
2019-05-21T05:16:27.183Z,48.10
2019-05-21T05:17:27.178Z,45.10
2019-05-21T05:18:27.117Z,46.00
2019-05-21T05:19:27.137Z,48.80
2019-05-21T05:20:27.098Z,51.00
2019-05-21T05:21:27.081Z,46.50
2019-05-21T05:22:27.036Z,48.60
2019-05-21T05:23:27.036Z,53.10
2019-05-21T05:24:26.997Z,59.50
2019-05-21T05:25:26.981Z,51.80
2019-05-21T05:26:26.958Z,46.60
2019-05-21T05:27:26.939Z,47.10
2019-05-21T05:28:35.572Z,54.80
2019-05-21T05:30:40.485Z,49.10
2019-05-21T05:31:31.508Z,43.40
2019-05-21T05:32:31.323Z,46.30
2019-05-21T05:33:31.282Z,50.50
2019-05-21T05:34:31.270Z,45.40
2019-05-21T05:35:31.285Z,50.30
2019-05-21T05:36:31.234Z,39.20
2019-05-21T05:37:43.361Z,44.80
2019-05-21T05:38:31.198Z,50.90
2019-05-21T05:39:31.160Z,49.70
2019-05-21T05:40:31.151Z,49.10
2019-05-21T05:41:31.175Z,49.10
2019-05-21T05:42:31.104Z,52.10
2019-05-21T05:43:31.120Z,56.20
2019-05-21T05:44:31.081Z,62.90
2019-05-21T05:45:31.047Z,53.40
2019-05-21T05:46:31.039Z,52.80
2019-05-21T05:47:31.033Z,49.20
2019-05-21T05:48:30.988Z,46.60
2019-05-21T05:49:30.973Z,53.30
2019-05-21T05:50:30.986Z,49.60
2019-05-21T05:51:30.950Z,56.70
2019-05-21T05:52:30.933Z,43.10
2019-05-21T05:53:30.910Z,51.20
2019-05-21T05:54:30.953Z,49.90
2019-05-21T05:55:30.861Z,45.40
2019-05-21T05:56:30.832Z,44.90
2019-05-21T05:57:30.804Z,46.50
2019-05-21T05:58:30.791Z,45.60
2019-05-21T05:59:30.769Z,44.40
2019-05-21T06:00:30.759Z,40.30
2019-05-21T06:01:39.414Z,37.10
2019-05-21T06:03:35.275Z,49.60
2019-05-21T06:04:35.501Z,39.30
2019-05-21T06:05:35.588Z,34.90
2019-05-21T06:06:35.448Z,36.80
2019-05-21T06:07:35.088Z,38.30
2019-05-21T06:08:35.094Z,36.40
2019-05-21T06:09:35.064Z,36.90
2019-05-21T06:10:35.049Z,35.30
2019-05-21T06:11:35.014Z,37.90
2019-05-21T06:12:34.986Z,38.60
2019-05-21T06:13:34.950Z,38.40
2019-05-21T06:14:34.990Z,36.20
2019-05-21T06:15:34.920Z,39.10
2019-05-21T06:16:34.911Z,41.50
2019-05-21T06:17:44.191Z,41.80
2019-05-21T06:19:39.350Z,37.00
2019-05-21T06:22:12.019Z,39.90
2019-05-21T06:23:20.557Z,38.30
2019-05-21T06:25:16.325Z,41.10
2019-05-21T06:26:24.915Z,39.10
2019-05-21T06:28:20.595Z,36.90
2019-05-21T06:29:28.994Z,40.40
2019-05-21T06:31:14.087Z,36.20
2019-05-21T06:32:13.543Z,40.90
2019-05-21T06:33:13.660Z,40.50
2019-05-21T06:34:13.654Z,36.30
2019-05-21T06:35:13.680Z,38.60
2019-05-21T06:36:13.479Z,39.40
2019-05-21T06:37:13.492Z,38.20
2019-05-21T06:38:17.550Z,42.00
2019-05-21T06:39:13.579Z,41.40
2019-05-21T06:40:13.402Z,40.90
2019-05-21T06:41:13.398Z,42.50
2019-05-21T06:42:13.325Z,40.10
2019-05-21T06:43:13.385Z,42.30
2019-05-21T06:44:13.313Z,36.50
2019-05-21T06:45:13.270Z,43.10
2019-05-21T06:46:22.272Z,37.00
2019-05-21T06:48:17.804Z,39.00
2019-05-21T06:49:26.474Z,37.80
2019-05-21T06:51:11.159Z,33.00
2019-05-21T06:52:11.059Z,37.80
2019-05-21T06:53:10.990Z,40.50
2019-05-21T06:54:10.980Z,34.60
2019-05-21T06:55:11.018Z,34.60
2019-05-21T06:56:10.914Z,32.90
2019-05-21T06:57:10.938Z,33.90
2019-05-21T06:58:10.888Z,35.50
2019-05-21T06:59:10.876Z,31.60
2019-05-21T07:00:10.830Z,30.70
2019-05-21T07:01:10.833Z,33.90
2019-05-21T07:02:10.872Z,35.20
2019-05-21T07:03:10.805Z,33.60
2019-05-21T07:04:10.754Z,31.70
2019-05-21T07:05:10.751Z,37.00
2019-05-21T07:06:10.746Z,33.90
2019-05-21T07:07:10.699Z,31.80
2019-05-21T07:08:10.735Z,30.10
2019-05-21T07:09:10.671Z,31.50
2019-05-21T07:10:10.661Z,28.90
2019-05-21T07:11:10.657Z,33.70
2019-05-21T07:12:10.651Z,28.70
2019-05-21T07:13:10.614Z,33.60
2019-05-21T07:14:10.594Z,28.90
2019-05-21T07:15:10.557Z,30.90
2019-05-21T07:16:19.424Z,33.10
2019-05-21T07:18:24.017Z,31.90
2019-05-21T07:19:15.371Z,29.40
2019-05-21T07:20:15.056Z,31.90
2019-05-21T07:21:14.896Z,28.90
2019-05-21T07:22:23.675Z,33.40
2019-05-21T07:24:28.916Z,29.70
2019-05-21T07:25:19.560Z,37.80
2019-05-21T07:26:28.597Z,31.30
2019-05-21T07:28:25.093Z,31.40
2019-05-21T07:29:33.441Z,40.20
2019-05-21T07:31:18.327Z,41.30
2019-05-21T07:32:18.179Z,34.70
2019-05-21T07:33:18.214Z,36.50
2019-05-21T07:34:18.405Z,40.50
2019-05-21T07:35:17.952Z,33.20
2019-05-21T07:36:17.963Z,37.90
2019-05-21T07:37:17.914Z,38.60
2019-05-21T07:38:17.920Z,36.00
2019-05-21T07:39:17.865Z,34.70
2019-05-21T07:40:17.909Z,38.10
2019-05-21T07:41:20.243Z,35.40
2019-05-21T07:42:17.908Z,40.40
2019-05-21T07:43:17.834Z,36.70
2019-05-21T07:44:17.787Z,38.30
2019-05-21T07:45:17.781Z,39.30
2019-05-21T07:46:17.745Z,43.70
2019-05-21T07:47:26.787Z,42.00
2019-05-21T07:49:22.398Z,41.70
2019-05-21T07:50:31.106Z,46.70
2019-05-21T07:52:26.604Z,37.80
2019-05-21T07:53:26.533Z,37.90
2019-05-21T07:54:28.144Z,35.50
2019-05-21T07:55:26.505Z,39.60
2019-05-21T07:56:36.447Z,37.90
2019-05-21T07:58:30.890Z,46.10
2019-05-21T07:59:39.572Z,37.80
2019-05-21T08:01:24.323Z,37.80
2019-05-21T08:02:24.388Z,36.20
2019-05-21T08:03:24.416Z,41.30
2019-05-21T08:04:24.154Z,35.70
2019-05-21T08:05:24.145Z,37.50
2019-05-21T08:06:24.116Z,39.30
2019-05-21T08:07:24.096Z,38.20
2019-05-21T08:08:24.066Z,37.90
2019-05-21T08:09:24.078Z,35.30
2019-05-21T08:10:24.030Z,41.20
2019-05-21T08:11:24.007Z,41.30
2019-05-21T08:12:38.178Z,41.00
2019-05-21T08:13:24.160Z,36.50
2019-05-21T08:14:23.971Z,34.40
2019-05-21T08:15:23.925Z,32.40
2019-05-21T08:16:33.385Z,33.30
2019-05-21T08:18:28.667Z,32.50
2019-05-21T08:19:37.513Z,36.30
2019-05-21T08:21:24.147Z,34.50
2019-05-21T08:22:21.976Z,34.10
2019-05-21T08:23:21.777Z,30.70
2019-05-21T08:24:30.487Z,29.00
2019-05-21T08:26:26.680Z,26.10
2019-05-21T08:27:35.913Z,26.60
2019-05-21T08:29:32.060Z,29.40
2019-05-21T08:32:36.618Z,32.80
2019-05-21T08:33:35.993Z,29.70
2019-05-21T08:34:36.258Z,31.30
2019-05-21T08:35:35.879Z,31.40
2019-05-21T08:36:35.786Z,32.20
2019-05-21T08:37:35.841Z,37.30
2019-05-21T08:38:37.207Z,31.20
2019-05-21T08:39:35.695Z,33.60
2019-05-21T08:42:16.283Z,32.60
2019-05-21T08:43:17.072Z,31.90
2019-05-21T08:44:15.728Z,32.40
2019-05-21T08:45:15.885Z,30.10
2019-05-21T08:46:24.489Z,33.60
2019-05-21T08:48:20.610Z,29.70
